Time;durP1;ratioP1;P1;durP2;ratioP2;P2;SDS_P1;SDS_P2;PMS_P1;PMS_P2;Temp;Humidity;BMP_temperature;BMP_pressure;BME280_temperature;BME280_humidity;BME280_pressure;Samples;Min_cycle;Max_cycle;Signal;HPM_P1;HPM_P2
2021/06/14 00:00:47;;;;;;;3.90;2.90;;;13.90;99.90;;;-140.29;100.00;66074.13;5051462;28;20514;-78
2021/06/14 00:03:17;;;;;;;6.83;3.00;;;13.60;99.90;;;-140.29;100.00;66074.13;5048911;28;20468;-78
2021/06/14 00:05:46;;;;;;;7.03;3.30;;;13.70;99.90;;;-140.29;100.00;66074.13;5051585;28;20459;-78
2021/06/14 00:08:19;;;;;;;7.10;3.27;;;13.60;99.90;;;-140.29;100.00;66074.13;5051812;28;20488;-78
2021/06/14 00:10:51;;;;;;;7.47;3.30;;;13.70;99.90;;;-140.29;100.00;66074.13;5051361;28;20538;-78
2021/06/14 00:13:21;;;;;;;4.20;2.90;;;14.00;99.90;;;-140.29;100.00;66074.13;5046032;28;21112;-78
2021/06/14 00:15:50;;;;;;;4.13;2.83;;;13.80;99.90;;;-140.29;100.00;66074.13;5049218;28;20515;-78
2021/06/14 00:18:21;;;;;;;6.93;3.10;;;13.70;99.90;;;-140.29;100.00;66074.13;5051037;28;20473;-77
2021/06/14 00:20:56;;;;;;;7.47;2.87;;;13.50;99.90;;;-140.29;100.00;66074.13;5052015;28;20468;-78
2021/06/14 00:23:28;;;;;;;5.83;2.90;;;13.40;99.90;;;-140.29;100.00;66074.13;5044301;28;20514;-78
2021/06/14 00:25:59;;;;;;;6.67;3.53;;;13.40;99.90;;;-140.29;100.00;66074.13;5046165;28;20804;-78
2021/06/14 00:28:28;;;;;;;4.67;3.17;;;13.60;99.90;;;-140.29;100.00;66074.13;5048857;28;20867;-78
2021/06/14 00:30:58;;;;;;;4.77;2.93;;;13.50;99.90;;;-140.29;100.00;66074.13;5050688;28;20465;-78
2021/06/14 00:33:28;;;;;;;7.07;3.40;;;13.40;99.90;;;-140.29;100.00;66074.13;5047046;28;20491;-78
2021/06/14 00:35:56;;;;;;;8.20;3.47;;;13.50;99.90;;;-140.29;100.00;66074.13;5048952;28;21022;-78
2021/06/14 00:38:25;;;;;;;4.57;3.17;;;13.40;99.90;;;-140.29;100.00;66074.13;5049728;28;20469;-77
2021/06/14 00:40:53;;;;;;;5.23;3.43;;;13.30;99.90;;;-140.29;100.00;66074.13;5048420;28;20832;-78
2021/06/14 00:43:22;;;;;;;4.97;2.80;;;13.20;99.90;;;-140.29;100.00;66074.13;5054352;28;20461;-78
2021/06/14 00:45:53;;;;;;;4.97;2.70;;;13.00;99.90;;;-140.29;100.00;66074.13;5058140;28;20495;-78
2021/06/14 00:48:22;;;;;;;5.00;2.70;;;13.10;99.90;;;-140.29;100.00;66074.13;5049063;28;20495;-78
2021/06/14 00:50:55;;;;;;;4.70;2.77;;;13.20;99.90;;;-140.29;100.00;66074.13;5047939;28;20464;-78
2021/06/14 00:53:29;;;;;;;9.07;3.40;;;13.00;99.90;;;-140.29;100.00;66074.13;5049195;28;21067;-78
2021/06/14 00:56:00;;;;;;;15.53;3.63;;;13.30;99.90;;;-140.29;100.00;66074.13;5051532;28;20601;-78
2021/06/14 00:58:29;;;;;;;6.07;3.73;;;13.40;99.90;;;-140.29;100.00;66074.13;5047802;28;20528;-78
2021/06/14 01:00:58;;;;;;;4.90;3.17;;;13.20;99.90;;;-140.29;100.00;66074.13;5051199;28;20457;-78
2021/06/14 01:03:27;;;;;;;9.17;3.50;;;13.20;99.90;;;-140.29;100.00;66074.13;5048718;28;20463;-78
2021/06/14 01:06:00;;;;;;;5.40;3.10;;;12.90;99.90;;;-140.29;100.00;66074.13;5048866;28;20461;-78
2021/06/14 01:08:32;;;;;;;5.43;3.23;;;12.80;99.90;;;-140.29;100.00;66074.13;5053637;28;20460;-78
2021/06/14 01:11:06;;;;;;;4.10;3.20;;;13.00;99.90;;;-140.29;100.00;66074.13;5054107;28;20510;-78
2021/06/14 01:13:41;;;;;;;5.70;3.37;;;13.00;99.90;;;-140.29;100.00;66074.13;5049673;28;20553;-78
2021/06/14 01:16:21;;;;;;;6.07;2.90;;;12.70;99.90;;;-140.29;100.00;66074.13;5055775;28;21189;-78
2021/06/14 01:19:00;;;;;;;12.60;3.93;;;12.50;99.90;;;-140.29;100.00;66074.13;5051523;28;20551;-78
2021/06/14 01:21:35;;;;;;;9.37;3.30;;;12.50;99.90;;;-140.29;100.00;66074.13;5063359;28;20460;-78
2021/06/14 01:24:36;;;;;;;5.63;3.60;;;12.40;99.90;;;-140.29;100.00;66074.13;5055189;28;20463;-78
2021/06/14 01:27:29;;;;;;;7.77;3.10;;;12.30;99.90;;;-140.29;100.00;66074.13;5046797;28;20492;-78
2021/06/14 01:29:59;;;;;;;12.67;3.37;;;12.40;99.90;;;-140.29;100.00;66074.13;5047738;28;20519;-78
2021/06/14 01:32:29;;;;;;;4.03;2.93;;;12.40;99.90;;;-140.29;100.00;66074.13;5058177;28;20545;-78
2021/06/14 01:34:58;;;;;;;5.90;3.30;;;12.50;99.90;;;-140.29;100.00;66074.13;5050687;28;20500;-78
2021/06/14 01:37:29;;;;;;;7.20;3.00;;;12.30;99.90;;;-140.29;100.00;66074.13;5054274;28;20714;-78
2021/06/14 01:39:59;;;;;;;5.83;3.40;;;12.40;99.90;;;-140.29;100.00;66074.13;5057328;28;21052;-78
2021/06/14 01:42:31;;;;;;;15.87;3.07;;;12.20;99.90;;;-140.29;100.00;66074.13;5057302;28;21019;-78
2021/06/14 01:45:01;;;;;;;5.77;3.07;;;12.20;99.90;;;-140.29;100.00;66074.13;5050179;28;20969;-78
2021/06/14 01:47:30;;;;;;;4.93;2.60;;;12.40;99.90;;;-140.29;100.00;66074.13;5054050;28;20457;-78
2021/06/14 01:50:00;;;;;;;7.70;2.87;;;12.40;99.90;;;-140.29;100.00;66074.13;5054428;28;20875;-78
2021/06/14 01:52:29;;;;;;;7.67;3.60;;;12.40;99.90;;;-140.29;100.00;66074.13;5051263;28;20471;-78
2021/06/14 01:54:59;;;;;;;3.73;2.90;;;12.30;99.90;;;-140.29;100.00;66074.13;5054313;28;20518;-78
2021/06/14 01:57:31;;;;;;;3.83;2.70;;;12.20;99.90;;;-140.29;100.00;66074.13;5051851;28;20461;-78
2021/06/14 02:00:02;;;;;;;17.23;3.47;;;12.10;99.90;;;-140.29;100.00;66074.13;5058732;28;20538;-78
2021/06/14 02:02:30;;;;;;;9.33;3.57;;;12.20;99.90;;;-140.29;100.00;66074.13;5050935;28;20518;-78
2021/06/14 02:05:01;;;;;;;8.17;4.40;;;12.10;99.90;;;-140.29;100.00;66074.13;5049456;28;20752;-78
2021/06/14 02:07:31;;;;;;;3.87;2.77;;;12.00;99.90;;;-140.29;100.00;66074.13;5052407;28;20973;-78
2021/06/14 02:10:00;;;;;;;4.83;2.90;;;11.90;99.90;;;-140.29;100.00;66074.13;5054442;28;20488;-78
2021/06/14 02:12:31;;;;;;;7.63;3.93;;;11.80;99.90;;;-140.29;100.00;66074.13;5050785;28;20522;-78
2021/06/14 02:15:00;;;;;;;8.90;3.33;;;12.00;99.90;;;-140.29;100.00;66074.13;5052506;28;20497;-78
2021/06/14 02:17:32;;;;;;;5.50;3.10;;;12.00;99.90;;;-140.29;100.00;66074.13;5047572;28;20484;-78
2021/06/14 02:20:01;;;;;;;8.70;3.23;;;11.90;99.90;;;-140.29;100.00;66074.13;5047901;28;20457;-78
2021/06/14 02:22:29;;;;;;;7.00;3.20;;;12.00;99.90;;;-140.29;100.00;66074.13;5054140;28;20464;-78
2021/06/14 02:24:58;;;;;;;5.53;2.70;;;12.10;99.90;;;-140.29;100.00;66074.13;5049902;28;20512;-78
2021/06/14 02:27:27;;;;;;;6.40;3.53;;;11.80;99.90;;;-140.29;100.00;66074.13;5052325;28;20458;-77
2021/06/14 02:29:56;;;;;;;17.43;3.43;;;12.00;99.90;;;-140.29;100.00;66074.13;5049053;28;20494;-78
2021/06/14 02:32:25;;;;;;;5.73;3.63;;;12.00;99.90;;;-140.29;100.00;66074.13;5049564;28;20488;-78
2021/06/14 02:34:54;;;;;;;5.33;3.10;;;12.00;99.90;;;-140.29;100.00;66074.13;5047115;28;20571;-77
2021/06/14 02:37:23;;;;;;;6.20;3.27;;;11.70;99.90;;;-140.29;100.00;66074.13;5054270;28;20456;-78
2021/06/14 02:39:54;;;;;;;8.20;3.50;;;11.50;99.90;;;-140.29;100.00;66074.13;5051919;28;20510;-77
2021/06/14 02:42:24;;;;;;;8.70;3.57;;;11.60;99.90;;;-140.29;100.00;66074.13;5051243;28;20510;-78
2021/06/14 02:44:54;;;;;;;4.77;2.60;;;11.80;99.90;;;-140.29;100.00;66074.13;5051673;28;20501;-78
2021/06/14 02:47:24;;;;;;;8.60;3.57;;;11.90;99.90;;;-140.29;100.00;66074.13;5054924;28;20595;-77
2021/06/14 02:49:53;;;;;;;8.23;3.20;;;12.00;99.90;;;-140.29;100.00;66074.13;5051345;28;20514;-78
2021/06/14 02:52:23;;;;;;;7.50;3.50;;;11.70;99.90;;;-140.29;100.00;66074.13;5050278;28;20496;-78
2021/06/14 02:54:58;;;;;;;7.03;3.20;;;11.80;99.90;;;-140.29;100.00;66074.13;5050541;28;20532;-78
2021/06/14 02:57:31;;;;;;;8.40;3.40;;;11.70;99.90;;;-140.29;100.00;66074.13;5048705;28;20464;-78
2021/06/14 03:00:00;;;;;;;8.03;3.17;;;11.90;99.90;;;-140.29;100.00;66074.13;5050271;28;20461;-78
2021/06/14 03:02:30;;;;;;;11.27;3.47;;;11.70;99.90;;;-140.29;100.00;66074.13;5046761;28;20472;-78
2021/06/14 03:04:59;;;;;;;4.43;3.03;;;11.70;99.90;;;-140.29;100.00;66074.13;5045800;28;20967;-79
2021/06/14 03:07:30;;;;;;;6.20;3.13;;;11.50;99.90;;;-140.29;100.00;66074.13;5052618;28;20520;-79
2021/06/14 03:09:58;;;;;;;4.07;3.00;;;11.60;99.90;;;-140.29;100.00;66074.13;5046128;28;20477;-78
2021/06/14 03:12:28;;;;;;;10.40;3.83;;;11.60;99.90;;;-140.29;100.00;66074.13;5045985;28;20468;-79
2021/06/14 03:14:57;;;;;;;6.33;3.60;;;11.70;99.90;;;-140.29;100.00;66074.13;5048727;28;21107;-78
2021/06/14 03:17:27;;;;;;;5.33;3.20;;;11.70;99.90;;;-140.29;100.00;66074.13;5041163;28;20516;-78
2021/06/14 03:19:58;;;;;;;5.40;3.00;;;11.70;99.90;;;-140.29;100.00;66074.13;5051782;28;20498;-78
2021/06/14 03:22:27;;;;;;;5.17;3.40;;;11.70;99.90;;;-140.29;100.00;66074.13;5050521;28;20460;-78
2021/06/14 03:24:56;;;;;;;5.23;3.37;;;11.70;99.90;;;-140.29;100.00;66074.13;5048258;28;20464;-78
2021/06/14 03:27:25;;;;;;;4.60;3.40;;;11.70;99.90;;;-140.29;100.00;66074.13;5052211;28;20480;-78
2021/06/14 03:29:55;;;;;;;12.73;3.57;;;11.80;99.90;;;-140.29;100.00;66074.13;5048436;28;20452;-78
2021/06/14 03:32:24;;;;;;;8.93;3.50;;;11.60;99.90;;;-140.29;100.00;66074.13;5053569;28;20484;-78
2021/06/14 03:34:56;;;;;;;11.00;4.23;;;11.60;99.90;;;-140.29;100.00;66074.13;5050861;28;20499;-78
2021/06/14 03:37:26;;;;;;;13.43;3.63;;;11.70;99.90;;;-140.29;100.00;66074.13;5053049;28;20463;-78
2021/06/14 03:39:54;;;;;;;3.80;3.10;;;11.70;99.90;;;-140.29;100.00;66074.13;5050459;28;20550;-78
2021/06/14 03:42:24;;;;;;;5.50;3.20;;;11.50;99.90;;;-140.29;100.00;66074.13;5051010;28;20502;-78
2021/06/14 03:44:53;;;;;;;12.67;5.07;;;11.50;99.90;;;-140.29;100.00;66074.13;5054776;28;20865;-81
2021/06/14 03:47:21;;;;;;;14.07;2.93;;;11.50;99.90;;;-140.29;100.00;66074.13;5052446;28;20922;-78
2021/06/14 03:49:50;;;;;;;4.77;3.60;;;11.50;99.90;;;-140.29;100.00;66074.13;5043348;28;20971;-78
2021/06/14 03:52:19;;;;;;;5.40;3.07;;;11.50;99.90;;;-140.29;100.00;66074.13;5048461;28;20487;-78
2021/06/14 03:54:48;;;;;;;6.43;3.60;;;11.60;99.90;;;-140.29;100.00;66074.13;5048194;28;20554;-78
2021/06/14 03:57:17;;;;;;;6.00;3.77;;;11.40;99.90;;;-140.29;100.00;66074.13;5044332;28;20497;-83
2021/06/14 03:59:45;;;;;;;16.60;5.67;;;11.20;99.90;;;-140.29;100.00;66074.13;5055132;28;20546;-78
2021/06/14 04:02:14;;;;;;;5.07;3.77;;;11.10;99.90;;;-140.29;100.00;66074.13;5047020;28;20504;-78
2021/06/14 04:04:48;;;;;;;6.17;3.70;;;11.20;99.90;;;-140.29;100.00;66074.13;5048848;28;20453;-78
2021/06/14 04:07:17;;;;;;;7.40;4.30;;;11.10;99.90;;;-140.29;100.00;66074.13;5042910;28;20492;-78
2021/06/14 04:09:47;;;;;;;6.20;3.50;;;11.00;99.90;;;-140.29;100.00;66074.13;5045227;28;20532;-78
2021/06/14 04:12:15;;;;;;;5.97;3.53;;;11.20;99.90;;;-140.29;100.00;66074.13;5046542;28;20507;-78
2021/06/14 04:14:45;;;;;;;7.37;3.50;;;11.30;99.90;;;-140.29;100.00;66074.13;5049062;28;20504;-78
2021/06/14 04:17:13;;;;;;;6.30;3.93;;;11.20;99.90;;;-140.29;100.00;66074.13;5047782;28;20497;-78
2021/06/14 04:19:42;;;;;;;4.33;3.23;;;11.30;99.90;;;-140.29;100.00;66074.13;5032205;28;20447;-78
2021/06/14 04:22:10;;;;;;;7.33;3.43;;;11.40;99.90;;;-140.29;100.00;66074.13;5030123;28;20524;-78
2021/06/14 04:24:39;;;;;;;4.73;3.43;;;11.30;99.90;;;-140.29;100.00;66074.13;5035638;28;20469;-84
2021/06/14 04:27:09;;;;;;;5.00;3.20;;;11.30;99.90;;;-140.29;100.00;66074.13;5033491;28;20832;-78
2021/06/14 04:29:38;;;;;;;6.93;3.83;;;11.30;99.90;;;-140.29;100.00;66074.13;5036240;28;20526;-78
2021/06/14 04:32:08;;;;;;;5.70;3.20;;;11.50;99.90;;;-140.29;100.00;66074.13;5031721;28;20450;-78
2021/06/14 04:34:36;;;;;;;5.73;3.97;;;11.40;99.90;;;-140.29;100.00;66074.13;5030859;28;20535;-78
2021/06/14 04:37:05;;;;;;;8.30;4.17;;;11.50;99.90;;;-140.29;100.00;66074.13;5031108;28;20446;-79
2021/06/14 04:39:35;;;;;;;4.80;3.20;;;11.60;99.90;;;-140.29;100.00;66074.13;5029792;28;20446;-79
2021/06/14 04:42:05;;;;;;;4.37;3.20;;;11.70;99.90;;;-140.29;100.00;66074.13;5031187;28;20450;-79
2021/06/14 04:44:35;;;;;;;5.23;3.30;;;11.80;99.90;;;-140.29;100.00;66074.13;5029737;28;20530;-78
2021/06/14 04:47:05;;;;;;;6.80;3.50;;;11.90;99.90;;;-140.29;100.00;66074.13;5031680;28;20516;-79
2021/06/14 04:49:33;;;;;;;11.20;3.33;;;11.90;99.90;;;-140.29;100.00;66074.13;5034133;28;20529;-78
2021/06/14 04:52:02;;;;;;;5.27;3.60;;;12.00;99.90;;;-140.29;100.00;66074.13;5030232;28;20543;-79
2021/06/14 04:54:30;;;;;;;8.13;4.30;;;12.00;99.90;;;-140.29;100.00;66074.13;5033604;28;20810;-79
2021/06/14 04:56:58;;;;;;;7.90;4.10;;;12.10;99.90;;;-140.29;100.00;66074.13;5041554;28;20495;-78
2021/06/14 04:59:27;;;;;;;6.03;3.90;;;12.20;99.90;;;-140.29;100.00;66074.13;5038360;28;20438;-78
2021/06/14 05:01:57;;;;;;;8.30;3.47;;;12.20;99.90;;;-140.29;100.00;66074.13;5042460;28;20442;-78
2021/06/14 05:04:26;;;;;;;6.60;4.40;;;12.30;99.90;;;-140.29;100.00;66074.13;5026946;28;20446;-79
2021/06/14 05:06:55;;;;;;;6.47;3.47;;;12.20;99.90;;;-140.29;100.00;66074.13;5036516;28;20461;-79
2021/06/14 05:09:24;;;;;;;18.77;4.27;;;12.20;99.90;;;-140.29;100.00;66074.13;5030269;28;20450;-79
2021/06/14 05:11:52;;;;;;;6.80;3.97;;;12.10;99.90;;;-140.29;100.00;66074.13;5033724;28;20466;-78
2021/06/14 05:14:21;;;;;;;6.10;3.57;;;12.20;99.90;;;-140.29;100.00;66074.13;5031755;28;20513;-79
2021/06/14 05:16:49;;;;;;;7.20;3.67;;;12.20;99.90;;;-140.29;100.00;66074.13;5036293;28;21011;-78
2021/06/14 05:19:19;;;;;;;50.47;25.00;;;12.30;99.90;;;-140.29;100.00;66074.13;5051809;28;20461;-81
2021/06/14 05:21:48;;;;;;;9.03;4.73;;;12.40;99.90;;;-140.29;100.00;66074.13;5051057;28;20461;-78
2021/06/14 05:24:16;;;;;;;8.00;3.33;;;12.50;99.90;;;-140.29;100.00;66074.13;5055335;28;20437;-78
2021/06/14 05:26:45;;;;;;;7.10;4.20;;;12.60;99.90;;;-140.29;100.00;66074.13;5047972;28;20444;-78
2021/06/14 05:29:13;;;;;;;12.40;3.57;;;12.60;99.90;;;-140.29;100.00;66074.13;5055011;28;20498;-78
2021/06/14 05:31:42;;;;;;;9.93;3.70;;;12.70;99.90;;;-140.29;100.00;66074.13;5052303;28;21002;-78
2021/06/14 05:34:11;;;;;;;8.90;4.27;;;12.80;99.90;;;-140.29;100.00;66074.13;5048709;28;20464;-78
2021/06/14 05:36:41;;;;;;;6.07;3.30;;;12.90;99.90;;;-140.29;100.00;66074.13;5050036;28;20485;-78
2021/06/14 05:39:09;;;;;;;5.43;4.00;;;13.00;99.90;;;-140.29;100.00;66074.13;5049765;28;20473;-79
2021/06/14 05:41:38;;;;;;;7.90;4.00;;;13.00;99.90;;;-140.29;100.00;66074.13;5058621;28;20517;-79
2021/06/14 05:44:06;;;;;;;4.07;3.10;;;13.10;99.90;;;-140.29;100.00;66074.13;5051099;28;20472;-79
2021/06/14 05:46:35;;;;;;;9.40;4.10;;;13.20;99.90;;;-140.29;100.00;66074.13;5057662;28;20515;-78
2021/06/14 05:49:05;;;;;;;8.63;4.00;;;13.20;99.90;;;-140.29;100.00;66074.13;5046368;28;20461;-77
2021/06/14 05:51:38;;;;;;;7.40;3.90;;;13.30;99.90;;;-140.29;100.00;66074.13;5051993;28;20461;-78
2021/06/14 05:54:08;;;;;;;12.37;5.43;;;13.40;99.90;;;-140.29;100.00;66074.13;5052994;28;20515;-78
2021/06/14 05:56:37;;;;;;;27.90;10.23;;;13.40;99.90;;;-140.29;100.00;66074.13;5055214;28;20500;-78
2021/06/14 05:59:06;;;;;;;12.20;5.70;;;13.50;99.90;;;-140.29;100.00;66074.13;5057507;28;20457;-79
2021/06/14 06:01:37;;;;;;;8.07;4.80;;;13.60;99.90;;;-140.29;100.00;66074.13;5057111;28;20467;-78
2021/06/14 06:04:06;;;;;;;6.80;4.17;;;13.70;99.90;;;-140.29;100.00;66074.13;5058918;28;20441;-78
2021/06/14 06:06:34;;;;;;;9.40;4.13;;;13.80;99.90;;;-140.29;100.00;66074.13;5058307;28;20456;-78
2021/06/14 06:09:03;;;;;;;7.47;3.83;;;13.80;99.90;;;-140.29;100.00;66074.13;5051450;28;20464;-78
2021/06/14 06:11:33;;;;;;;9.20;4.10;;;13.80;99.90;;;-140.29;100.00;66074.13;5052552;28;20515;-78
2021/06/14 06:14:01;;;;;;;10.47;4.17;;;13.90;99.90;;;-140.29;100.00;66074.13;5048132;28;20529;-78
2021/06/14 06:16:30;;;;;;;7.90;4.17;;;14.00;99.90;;;-140.29;100.00;66074.13;5057347;28;20495;-78
2021/06/14 06:18:59;;;;;;;5.77;3.97;;;14.10;99.90;;;-140.29;100.00;66074.13;5050953;28;20461;-78
2021/06/14 06:21:28;;;;;;;6.70;3.77;;;14.20;99.90;;;-140.29;100.00;66074.13;5051937;28;20460;-78
2021/06/14 06:23:56;;;;;;;6.30;3.53;;;14.20;99.90;;;-140.29;100.00;66074.13;5051844;28;20461;-78
2021/06/14 06:26:25;;;;;;;8.10;4.13;;;14.40;99.90;;;-140.29;100.00;66074.13;5052020;28;20865;-78
2021/06/14 06:28:55;;;;;;;7.07;3.83;;;14.40;99.90;;;-140.29;100.00;66074.13;5051842;28;20456;-78
2021/06/14 06:31:24;;;;;;;9.33;4.20;;;14.50;99.90;;;-140.29;100.00;66074.13;5052558;28;20468;-78
2021/06/14 06:33:53;;;;;;;11.13;4.67;;;14.60;99.90;;;-140.29;100.00;66074.13;5053515;28;20552;-78
2021/06/14 06:36:21;;;;;;;10.53;3.77;;;14.70;99.90;;;-140.29;100.00;66074.13;5046954;28;20504;-79
2021/06/14 06:38:50;;;;;;;5.97;3.73;;;14.70;99.90;;;-140.29;100.00;66074.13;5054114;28;20457;-78
2021/06/14 06:41:19;;;;;;;5.60;3.83;;;14.80;99.90;;;-140.29;100.00;66074.13;5050528;28;20953;-79
2021/06/14 06:43:47;;;;;;;7.67;4.20;;;14.90;99.90;;;-140.29;100.00;66074.13;5057158;28;20464;-79
2021/06/14 06:46:17;;;;;;;7.10;3.23;;;14.90;99.90;;;-140.29;100.00;66074.13;5052699;28;20461;-78
2021/06/14 06:48:46;;;;;;;4.43;3.17;;;15.00;99.90;;;-140.29;100.00;66074.13;5047819;28;20540;-78
2021/06/14 06:51:14;;;;;;;23.30;10.00;;;15.10;99.90;;;-140.29;100.00;66074.13;5045607;28;21013;-80
2021/06/14 06:53:43;;;;;;;16.60;7.77;;;15.20;99.90;;;-140.29;100.00;66074.13;5052716;28;20464;-77
2021/06/14 06:56:12;;;;;;;5.50;3.60;;;15.20;99.90;;;-140.29;100.00;66074.13;5051188;28;21022;-78
2021/06/14 06:58:40;;;;;;;6.90;3.43;;;15.30;99.90;;;-140.29;100.00;66074.13;5050760;28;20539;-78
2021/06/14 07:01:09;;;;;;;7.50;3.40;;;15.40;99.90;;;-140.29;100.00;66074.13;5052819;28;20449;-78
2021/06/14 07:03:41;;;;;;;4.47;3.00;;;15.50;99.90;;;-140.29;100.00;66074.13;5054721;28;20975;-78
2021/06/14 07:06:10;;;;;;;15.60;4.10;;;15.50;99.90;;;-140.29;100.00;66074.13;5048042;28;20450;-77
2021/06/14 07:08:38;;;;;;;8.87;4.07;;;15.60;99.90;;;-140.29;100.00;66074.13;5049478;28;20434;-78
2021/06/14 07:11:07;;;;;;;6.20;3.50;;;15.60;99.90;;;-140.29;100.00;66074.13;5052379;28;20487;-78
2021/06/14 07:13:36;;;;;;;5.90;2.80;;;15.70;99.90;;;-140.29;100.00;66074.13;5051808;28;20882;-77
2021/06/14 07:16:05;;;;;;;10.10;3.40;;;15.80;99.90;;;-140.29;100.00;66074.13;5052953;28;20489;-78
2021/06/14 07:18:33;;;;;;;6.03;3.50;;;15.90;99.90;;;-140.29;100.00;66074.13;5049622;28;20880;-78
2021/06/14 07:21:03;;;;;;;10.97;3.43;;;16.00;99.90;;;-140.29;100.00;66074.13;5051013;28;20533;-78
2021/06/14 07:23:32;;;;;;;14.20;3.20;;;16.00;99.90;;;-140.29;100.00;66074.13;5050340;28;20503;-77
2021/06/14 07:26:00;;;;;;;11.53;3.53;;;16.20;99.90;;;-140.29;100.00;66074.13;5050420;28;20456;-78
2021/06/14 07:28:29;;;;;;;9.93;2.80;;;16.20;99.90;;;-140.29;100.00;66074.13;5050506;28;20865;-78
2021/06/14 07:30:58;;;;;;;7.00;3.47;;;16.30;99.90;;;-140.29;100.00;66074.13;5049199;28;20445;-78
2021/06/14 07:33:27;;;;;;;9.97;3.37;;;16.40;99.90;;;-140.29;100.00;66074.13;5049788;28;20445;-78
2021/06/14 07:35:56;;;;;;;6.90;3.30;;;16.50;99.90;;;-140.29;100.00;66074.13;5044644;28;20492;-78
2021/06/14 07:38:26;;;;;;;7.60;3.30;;;16.60;99.90;;;-140.29;100.00;66074.13;5046510;28;20473;-78
2021/06/14 07:40:54;;;;;;;4.77;2.63;;;16.60;99.90;;;-140.29;100.00;66074.13;5048427;28;20453;-78
2021/06/14 07:43:23;;;;;;;8.13;3.50;;;16.60;99.90;;;-140.29;100.00;66074.13;5042203;28;20475;-78
2021/06/14 07:45:53;;;;;;;4.47;2.50;;;16.80;99.90;;;-140.29;100.00;66074.13;5048688;28;20863;-78
2021/06/14 07:48:22;;;;;;;7.13;3.67;;;16.80;99.90;;;-140.29;100.00;66074.13;5047888;28;20545;-78
2021/06/14 07:50:55;;;;;;;4.00;2.80;;;17.00;99.90;;;-140.29;100.00;66074.13;5053305;28;20456;-78
2021/06/14 07:53:25;;;;;;;9.73;4.13;;;17.00;99.90;;;-140.29;100.00;66074.13;5055765;28;20510;-78
2021/06/14 07:55:54;;;;;;;5.90;3.20;;;17.10;99.90;;;-140.29;100.00;66074.13;5050490;28;20533;-77
2021/06/14 07:58:24;;;;;;;9.33;3.60;;;17.10;99.90;;;-140.29;100.00;66074.13;5047948;28;20464;-82
2021/06/14 08:00:53;;;;;;;10.43;4.13;;;17.30;99.90;;;-140.29;100.00;66074.13;5050628;28;20984;-81
2021/06/14 13:02:56;;;;;;;3.90;2.57;;;22.40;94.40;;;23.11;60.20;98474.97;5138274;27;21051;-77
2021/06/14 13:05:27;;;;;;;4.20;1.87;;;22.40;94.80;;;23.32;59.10;98471.38;5102492;28;20473;-78
2021/06/14 13:07:59;;;;;;;6.63;2.67;;;22.70;93.60;;;23.37;59.17;98469.53;5100498;28;20462;-78
2021/06/14 13:10:32;;;;;;;3.63;2.13;;;22.80;93.90;;;23.50;58.15;98469.06;5101915;28;20471;-78
2021/06/14 13:13:12;;;;;;;5.20;2.63;;;22.90;93.60;;;23.59;58.01;98456.03;5104617;28;20966;-78
2021/06/14 13:15:41;;;;;;;3.67;2.37;;;23.00;93.60;;;23.76;60.69;98461.19;5084120;28;20459;-78
2021/06/14 13:18:14;;;;;;;6.50;2.47;;;23.10;94.60;;;23.91;58.83;98458.56;5084403;28;20446;-78
2021/06/14 13:20:47;;;;;;;5.20;2.37;;;23.30;93.80;;;24.05;55.13;98459.69;5084667;28;20459;-78
2021/06/14 13:23:18;;;;;;;5.03;2.40;;;23.60;92.30;;;24.18;55.71;98448.50;5084164;28;20463;-78
2021/06/14 13:25:51;;;;;;;5.00;2.37;;;23.60;92.70;;;24.34;56.95;98452.81;5085683;28;20929;-78
2021/06/14 13:28:29;;;;;;;5.03;2.00;;;23.80;93.20;;;24.43;55.00;98451.22;5083973;28;20451;-79
2021/06/14 13:31:07;;;;;;;6.20;2.50;;;23.90;92.40;;;24.51;54.68;98450.69;5082475;28;20462;-78
2021/06/14 13:33:44;;;;;;;2.90;2.03;;;24.00;92.50;;;24.71;53.53;98443.75;5083219;28;20463;-78
2021/06/14 13:36:15;;;;;;;4.83;2.30;;;24.20;91.90;;;24.84;51.97;98440.56;5082922;28;20781;-78
2021/06/14 13:38:45;;;;;;;6.47;2.60;;;24.40;91.30;;;24.90;50.37;98436.78;5082782;28;20464;-78
2021/06/14 13:41:24;;;;;;;9.10;2.67;;;24.50;90.50;;;24.94;51.15;98424.47;5086382;28;20491;-78
2021/06/14 13:44:04;;;;;;;4.23;2.40;;;24.50;91.00;;;25.11;51.98;98435.69;5082018;28;20466;-78
2021/06/14 13:46:41;;;;;;;8.53;2.43;;;24.60;91.30;;;25.25;51.72;98435.91;5083192;28;20749;-78
2021/06/14 13:49:12;;;;;;;6.17;2.80;;;24.70;91.50;;;25.29;50.99;98432.44;5077660;28;20485;-79
2021/06/14 13:51:43;;;;;;;12.67;6.00;;;24.70;90.20;;;25.41;52.15;98426.75;5084451;28;21001;-80
2021/06/14 13:54:15;;;;;;;7.40;2.63;;;24.90;92.10;;;25.46;50.39;98432.09;5080829;28;20517;-78
2021/06/14 13:56:48;;;;;;;6.13;2.40;;;24.90;90.60;;;25.51;49.25;98424.09;5080056;28;20455;-79
2021/06/14 13:59:22;;;;;;;7.20;2.37;;;24.90;90.20;;;25.59;48.61;98414.66;5079929;28;20587;-78
2021/06/14 14:01:52;;;;;;;11.03;2.70;;;25.10;89.50;;;25.70;50.40;98409.00;5082490;28;20498;-79
2021/06/14 14:04:24;;;;;;;2.97;2.10;;;25.20;90.80;;;25.86;50.67;98404.38;5081718;28;20963;-79
2021/06/14 14:06:55;;;;;;;6.13;2.37;;;25.30;90.70;;;26.00;47.33;98410.69;5071688;28;20880;-78
2021/06/14 14:09:26;;;;;;;23.53;2.53;;;25.50;88.30;;;26.13;47.27;98403.91;5075574;28;21369;-78
2021/06/14 14:11:57;;;;;;;3.57;1.90;;;25.60;88.10;;;26.24;48.57;98397.44;5080135;28;20470;-78
2021/06/14 14:14:28;;;;;;;6.23;2.27;;;25.60;89.90;;;26.31;47.70;98393.34;5066144;28;20902;-78
2021/06/14 14:16:56;;;;;;;6.10;1.80;;;25.80;88.70;;;26.42;46.87;98392.19;5068726;28;20900;-78
2021/06/14 14:19:32;;;;;;;7.70;2.53;;;26.00;88.20;;;26.48;45.67;98383.00;5067449;28;20460;-78
2021/06/14 14:22:02;;;;;;;5.33;2.70;;;26.00;86.00;;;26.60;45.94;98382.66;5067709;28;20494;-79
2021/06/14 14:24:30;;;;;;;8.93;3.03;;;26.20;86.60;;;26.69;46.83;98382.84;5067611;28;20460;-78
2021/06/14 14:27:01;;;;;;;3.93;2.47;;;26.20;87.20;;;26.78;47.45;98381.13;5069031;28;20475;-78
2021/06/14 14:29:34;;;;;;;6.00;2.60;;;26.30;89.00;;;26.86;46.30;98384.06;5067005;28;21014;-78
2021/06/14 14:32:07;;;;;;;3.97;2.10;;;26.40;87.50;;;26.99;45.48;98386.06;5063638;28;20468;-78
2021/06/14 14:34:41;;;;;;;3.30;1.73;;;26.50;85.00;;;27.12;44.82;98376.50;5068203;28;20940;-78
2021/06/14 14:37:42;;;;;;;7.40;2.23;;;26.60;85.20;;;27.27;44.41;98380.91;5067555;28;20463;-78
2021/06/14 14:40:16;;;;;;;43.07;26.17;;;26.80;84.50;;;27.35;44.63;98378.38;5065363;28;20824;-81
2021/06/14 14:42:51;;;;;;;12.13;3.40;;;26.90;85.20;;;27.44;45.38;98384.75;5065825;28;20556;-79
2021/06/14 14:45:24;;;;;;;9.13;2.33;;;26.90;86.10;;;27.60;45.89;98390.72;5064957;28;20455;-79
2021/06/14 14:47:56;;;;;;;5.67;2.10;;;27.00;87.10;;;27.71;46.61;98394.88;5065848;28;20811;-78
2021/06/14 14:50:31;;;;;;;5.80;2.20;;;27.20;87.40;;;27.75;44.02;98392.41;5067415;28;20903;-78
2021/06/14 14:53:00;;;;;;;4.20;2.00;;;27.20;84.20;;;27.83;42.71;98391.78;5068123;28;20467;-78
2021/06/14 14:55:31;;;;;;;3.77;1.87;;;27.40;81.80;;;27.93;43.02;98388.94;5067742;28;20966;-79
2021/06/14 14:58:01;;;;;;;3.23;2.00;;;27.40;82.70;;;27.99;42.35;98383.19;5066059;28;20526;-79
2021/06/14 15:00:31;;;;;;;7.93;2.70;;;27.60;81.80;;;28.09;43.11;98370.72;5067846;28;20539;-79
2021/06/14 15:03:00;;;;;;;3.63;2.07;;;27.70;83.60;;;28.26;44.22;98370.97;5066030;28;20491;-79
2021/06/14 15:05:30;;;;;;;14.90;9.77;;;27.80;84.50;;;28.40;43.78;98367.25;5066768;28;20567;-78
2021/06/14 15:07:58;;;;;;;3.80;2.07;;;27.90;84.50;;;28.52;44.77;98352.53;5066880;28;20455;-80
2021/06/14 15:10:27;;;;;;;4.27;2.00;;;28.10;85.00;;;28.58;42.47;98356.72;5069099;28;20855;-80
2021/06/14 15:12:56;;;;;;;3.40;2.13;;;28.30;81.60;;;28.78;41.63;98351.00;5067179;28;20818;-79
2021/06/14 15:15:25;;;;;;;4.57;2.43;;;28.40;80.40;;;28.85;40.21;98346.81;5066677;28;20755;-79